createdAt,value
2019-02-24T00:02:09.446Z,54.80
2019-02-24T00:04:40.890Z,59.07
2019-02-24T00:07:12.490Z,54.20
2019-02-24T00:09:43.790Z,61.10
2019-02-24T00:12:15.012Z,52.97
2019-02-24T00:14:47.003Z,54.27
2019-02-24T00:17:18.691Z,59.60
2019-02-24T00:19:50.010Z,64.00
2019-02-24T00:22:21.852Z,71.50
2019-02-24T00:24:52.598Z,59.47
2019-02-24T00:27:24.050Z,56.97
2019-02-24T00:29:55.278Z,51.53
2019-02-24T00:32:26.769Z,50.53
2019-02-24T00:34:59.238Z,46.37
2019-02-24T00:37:30.932Z,45.27
2019-02-24T00:40:02.339Z,49.37
2019-02-24T00:42:33.790Z,40.93
2019-02-24T00:45:06.510Z,41.13
2019-02-24T00:47:37.872Z,49.90
2019-02-24T00:50:10.088Z,46.53
2019-02-24T00:52:41.914Z,40.57
2019-02-24T00:55:13.230Z,40.70
2019-02-24T00:57:44.632Z,41.03
2019-02-24T01:00:15.847Z,45.23
2019-02-24T01:02:47.277Z,39.13
2019-02-24T01:05:19.952Z,41.77
2019-02-24T01:07:51.410Z,41.40
2019-02-24T01:10:22.650Z,41.90
2019-02-24T01:12:53.974Z,41.97
2019-02-24T01:15:25.247Z,40.63
2019-02-24T01:17:56.950Z,42.90
2019-02-24T01:20:28.865Z,43.27
2019-02-24T01:23:00.038Z,42.50
2019-02-24T01:25:31.250Z,40.10
2019-02-24T01:28:03.043Z,44.20
2019-02-24T01:30:34.181Z,47.90
2019-02-24T01:33:04.952Z,40.60
2019-02-24T01:35:37.350Z,38.53
2019-02-24T01:38:08.950Z,40.47
2019-02-24T01:40:40.691Z,43.37
2019-02-24T01:43:11.630Z,39.87
2019-02-24T01:45:42.705Z,44.53
2019-02-24T01:48:14.284Z,49.33
2019-02-24T01:50:46.652Z,45.57
2019-02-24T01:53:18.266Z,39.17
2019-02-24T01:55:48.752Z,34.07
2019-02-24T01:58:19.892Z,41.43
2019-02-24T02:00:51.022Z,40.43
2019-02-24T02:03:22.451Z,42.67
2019-02-24T02:05:53.082Z,41.20
2019-02-24T02:08:24.417Z,35.13
2019-02-24T02:10:55.752Z,41.47
2019-02-24T02:13:26.457Z,40.37
2019-02-24T02:15:57.717Z,35.10
2019-02-24T02:18:29.825Z,38.83
2019-02-24T02:21:01.362Z,41.73
2019-02-24T02:23:32.297Z,41.93
2019-02-24T02:26:03.077Z,40.43
2019-02-24T02:28:34.351Z,42.93
2019-02-24T02:31:05.414Z,39.33
2019-02-24T02:33:38.162Z,36.00
2019-02-24T02:36:09.778Z,43.23
2019-02-24T02:38:41.937Z,40.87
2019-02-24T02:41:13.122Z,37.03
2019-02-24T02:43:44.341Z,45.67
2019-02-24T02:46:16.172Z,42.27
2019-02-24T02:48:47.123Z,47.50
2019-02-24T02:51:18.257Z,39.97
2019-02-24T02:53:49.541Z,45.90
2019-02-24T02:56:23.487Z,35.37
2019-02-24T02:58:54.945Z,41.60
2019-02-24T03:01:26.163Z,50.70
2019-02-24T03:03:57.096Z,57.57
2019-02-24T03:06:29.948Z,55.03
2019-02-24T03:09:01.042Z,59.73
2019-02-24T03:11:33.024Z,61.97
2019-02-24T03:14:04.298Z,73.73
2019-02-24T03:16:35.187Z,62.87
2019-02-24T03:19:07.149Z,56.10
2019-02-24T03:21:38.228Z,51.73
2019-02-24T03:24:09.017Z,55.17
2019-02-24T03:26:39.643Z,63.23
2019-02-24T03:29:10.490Z,52.43
2019-02-24T03:31:42.254Z,49.23
2019-02-24T03:34:13.514Z,59.07
2019-02-24T03:36:45.284Z,68.07
2019-02-24T03:39:16.028Z,63.73
2019-02-24T03:41:47.342Z,66.00
2019-02-24T03:44:19.082Z,66.00
2019-02-24T03:46:50.592Z,53.43
2019-02-24T03:49:21.667Z,58.23
2019-02-24T03:51:53.031Z,59.77
2019-02-24T03:54:24.103Z,50.57
2019-02-24T03:56:55.455Z,61.80
2019-02-24T03:59:26.534Z,59.20
2019-02-24T04:01:57.416Z,61.90
2019-02-24T04:04:28.606Z,57.47
2019-02-24T04:06:59.574Z,51.90
2019-02-24T04:09:30.902Z,47.80
2019-02-24T04:12:01.977Z,46.93
2019-02-24T04:14:34.227Z,42.63
2019-02-24T04:17:05.305Z,44.40
2019-02-24T04:19:36.469Z,55.63
2019-02-24T04:22:07.325Z,51.83
2019-02-24T04:24:38.050Z,48.00
2019-02-24T04:27:09.379Z,51.77
2019-02-24T04:29:40.867Z,46.73
2019-02-24T04:32:12.177Z,46.37
2019-02-24T04:34:43.062Z,49.23
2019-02-24T04:37:14.498Z,50.40
2019-02-24T04:39:45.777Z,50.70
2019-02-24T04:42:17.378Z,58.40
2019-02-24T04:44:49.342Z,67.30
2019-02-24T04:47:21.332Z,66.30
2019-02-24T04:49:53.180Z,67.67
2019-02-24T04:52:25.129Z,66.13
2019-02-24T04:54:56.494Z,60.77
2019-02-24T04:57:27.717Z,62.03
2019-02-24T04:59:59.370Z,62.87
2019-02-24T05:02:30.699Z,58.93
2019-02-24T05:05:01.468Z,57.47
2019-02-24T05:07:33.328Z,55.13
2019-02-24T05:10:05.736Z,51.13
2019-02-24T05:12:37.128Z,50.93
2019-02-24T05:15:08.201Z,54.30
2019-02-24T05:17:42.785Z,55.67
2019-02-24T05:20:14.489Z,58.10
2019-02-24T05:22:45.647Z,54.67
2019-02-24T05:25:17.060Z,46.30
2019-02-24T05:27:51.500Z,48.57
2019-02-24T05:30:23.200Z,40.97
2019-02-24T05:32:54.340Z,43.40
2019-02-24T05:35:25.584Z,41.80
2019-02-24T05:37:57.080Z,42.37
2019-02-24T05:40:29.511Z,38.73
2019-02-24T05:43:00.680Z,38.70
2019-02-24T05:45:32.539Z,44.30
2019-02-24T05:48:04.330Z,38.00
2019-02-24T05:50:36.381Z,45.60
2019-02-24T05:53:08.462Z,50.23
2019-02-24T05:55:40.742Z,37.23
2019-02-24T05:58:13.213Z,37.10
2019-02-24T06:00:44.898Z,40.67
2019-02-24T06:03:18.367Z,45.73
2019-02-24T06:05:49.137Z,45.37
2019-02-24T06:08:21.211Z,40.10
2019-02-24T06:10:52.511Z,50.70
2019-02-24T06:13:23.779Z,51.33
2019-02-24T06:15:54.986Z,49.43
2019-02-24T06:18:26.757Z,49.87
2019-02-24T06:20:58.115Z,49.13
2019-02-24T06:23:29.584Z,40.53
2019-02-24T06:26:01.682Z,37.70
2019-02-24T06:28:33.513Z,39.57
2019-02-24T06:31:06.335Z,37.50
2019-02-24T06:33:37.795Z,45.67
2019-02-24T06:36:08.765Z,46.13
2019-02-24T06:38:40.264Z,50.40
2019-02-24T06:41:11.705Z,43.83
2019-02-24T06:43:43.282Z,41.50
2019-02-24T06:46:15.006Z,41.93
2019-02-24T06:48:47.351Z,44.77
2019-02-24T06:51:18.744Z,43.30
2019-02-24T06:53:49.586Z,47.67
2019-02-24T06:56:20.861Z,41.10
2019-02-24T06:58:52.186Z,41.60
2019-02-24T07:01:23.559Z,45.30
2019-02-24T07:03:55.092Z,41.40
2019-02-24T07:06:26.853Z,47.60
2019-02-24T07:08:57.560Z,42.83
2019-02-24T07:11:29.213Z,52.03
2019-02-24T07:14:00.758Z,46.63
2019-02-24T07:16:31.867Z,44.33
2019-02-24T07:19:03.657Z,45.00
2019-02-24T07:21:35.222Z,40.77
2019-02-24T07:24:06.734Z,39.17
2019-02-24T07:26:38.822Z,43.57
2019-02-24T07:29:10.304Z,38.60
2019-02-24T07:31:42.262Z,45.80
2019-02-24T07:34:13.217Z,41.07
2019-02-24T07:36:44.395Z,41.80
2019-02-24T07:39:16.333Z,37.03
2019-02-24T07:41:47.919Z,43.93
2019-02-24T07:44:19.116Z,38.00
2019-02-24T07:46:50.435Z,40.37
2019-02-24T07:49:21.849Z,41.77
2019-02-24T07:51:53.581Z,45.30
2019-02-24T07:54:24.954Z,40.87
2019-02-24T07:56:56.236Z,38.53
2019-02-24T07:59:27.648Z,45.00
2019-02-24T08:01:58.867Z,45.53
2019-02-24T08:04:30.598Z,50.27
2019-02-24T08:07:02.106Z,38.87
2019-02-24T08:09:34.818Z,41.93
2019-02-24T08:12:05.983Z,44.30
2019-02-24T08:14:37.263Z,43.27
2019-02-24T08:17:08.450Z,44.57
2019-02-24T08:19:39.649Z,41.33
2019-02-24T08:22:12.098Z,39.17
2019-02-24T08:24:43.155Z,38.87
2019-02-24T08:27:15.274Z,44.37
2019-02-24T08:29:46.609Z,41.73
2019-02-24T08:32:18.465Z,39.93
2019-02-24T08:34:50.098Z,36.70
2019-02-24T08:37:21.885Z,44.83
2019-02-24T08:39:53.946Z,38.50
2019-02-24T08:42:25.969Z,36.27
2019-02-24T08:44:57.579Z,32.23
2019-02-24T08:47:28.604Z,37.93
2019-02-24T08:50:00.596Z,41.30
2019-02-24T08:52:32.847Z,39.93
2019-02-24T08:55:03.660Z,42.57
2019-02-24T08:57:35.262Z,42.30
2019-02-24T09:00:11.067Z,41.23
2019-02-24T09:02:42.400Z,42.67
2019-02-24T09:05:13.857Z,35.23
2019-02-24T09:07:45.629Z,441.70
2019-02-24T09:10:18.286Z,405.20
2019-02-24T09:12:49.729Z,44.47
2019-02-24T09:15:21.582Z,38.27
2019-02-24T09:17:53.092Z,41.40
2019-02-24T09:20:23.989Z,31.33
2019-02-24T09:22:55.423Z,37.27
2019-02-24T09:25:26.656Z,32.50
2019-02-24T09:27:59.326Z,31.87
2019-02-24T09:30:31.324Z,34.40
2019-02-24T09:33:02.316Z,32.17
2019-02-24T09:35:33.913Z,34.93
2019-02-24T09:38:05.193Z,31.67
2019-02-24T09:40:36.481Z,33.33
2019-02-24T09:43:07.582Z,54.97
2019-02-24T09:45:39.647Z,39.00
2019-02-24T09:48:11.142Z,39.20
2019-02-24T09:50:43.064Z,39.67
2019-02-24T09:53:16.344Z,33.90
2019-02-24T09:55:47.109Z,33.17
2019-02-24T09:58:18.202Z,27.80
2019-02-24T10:00:50.431Z,36.40
2019-02-24T10:03:22.327Z,27.60
2019-02-24T10:05:53.619Z,32.43
2019-02-24T10:08:26.101Z,31.97
2019-02-24T10:10:59.405Z,31.20
2019-02-24T10:13:30.828Z,27.93
2019-02-24T10:16:03.006Z,33.97
2019-02-24T10:18:33.786Z,34.13
2019-02-24T10:21:05.494Z,36.40
2019-02-24T10:23:37.888Z,37.43
2019-02-24T10:26:09.412Z,35.93
2019-02-24T10:28:40.735Z,35.17
2019-02-24T10:31:19.604Z,33.43
2019-02-24T10:33:45.589Z,31.00
2019-02-24T10:36:17.692Z,31.37
2019-02-24T10:38:52.581Z,32.73
2019-02-24T10:41:24.733Z,35.47
2019-02-24T10:43:56.675Z,30.27
2019-02-24T10:46:28.418Z,37.57
2019-02-24T10:49:03.681Z,26.57
2019-02-24T10:51:34.077Z,27.97
2019-02-24T10:54:05.620Z,34.13
2019-02-24T10:56:37.538Z,27.93
2019-02-24T10:59:07.878Z,26.77
2019-02-24T11:01:38.129Z,19.90
2019-02-24T11:04:08.432Z,15.53
2019-02-24T11:06:39.405Z,23.90
2019-02-24T11:09:11.577Z,25.37
2019-02-24T11:11:43.816Z,22.93
2019-02-24T11:14:15.395Z,23.87
2019-02-24T11:16:46.628Z,22.33
2019-02-24T11:19:18.497Z,25.63
2019-02-24T11:21:49.614Z,24.07
2019-02-24T11:24:20.933Z,18.70
2019-02-24T11:26:52.220Z,21.03
2019-02-24T11:29:24.464Z,22.90
2019-02-24T11:31:57.973Z,28.40
2019-02-24T11:34:29.615Z,19.70
2019-02-24T11:37:01.658Z,18.57
2019-02-24T11:39:33.278Z,20.40
2019-02-24T11:42:04.718Z,19.57
2019-02-24T11:44:38.385Z,16.70
2019-02-24T11:47:09.878Z,20.13
2019-02-24T11:49:41.814Z,21.23
2019-02-24T11:52:12.708Z,16.00
2019-02-24T11:54:45.545Z,16.27
2019-02-24T11:57:17.418Z,16.40
2019-02-24T11:59:48.500Z,16.70
2019-02-24T12:02:20.036Z,19.20
2019-02-24T12:04:50.956Z,15.20
2019-02-24T12:07:22.776Z,15.70
2019-02-24T12:09:53.575Z,13.30
2019-02-24T12:12:24.490Z,14.40
2019-02-24T12:14:55.265Z,18.33
2019-02-24T12:17:26.992Z,14.67
2019-02-24T12:20:00.428Z,20.40
2019-02-24T12:22:31.072Z,15.67
2019-02-24T12:25:01.328Z,13.97
2019-02-24T12:27:32.865Z,21.17
2019-02-24T12:30:03.215Z,16.03
2019-02-24T12:32:33.567Z,16.67
2019-02-24T12:35:04.430Z,17.80
2019-02-24T12:37:35.370Z,19.82
2019-02-24T12:40:09.290Z,22.93
2019-02-24T12:42:40.656Z,21.77
2019-02-24T12:45:12.027Z,19.87
2019-02-24T12:47:42.342Z,18.35
2019-02-24T12:50:14.501Z,18.23
2019-02-24T12:52:45.852Z,17.90
2019-02-24T12:55:16.127Z,19.23
2019-02-24T12:57:46.465Z,16.37
2019-02-24T13:00:20.495Z,15.03
2019-02-24T13:02:51.490Z,18.83
2019-02-24T13:05:21.766Z,15.00
2019-02-24T13:07:52.031Z,18.85
2019-02-24T13:10:22.339Z,15.50
2019-02-24T13:12:52.758Z,23.83
2019-02-24T13:15:23.565Z,15.25
2019-02-24T13:17:55.655Z,12.03
2019-02-24T13:20:26.715Z,16.87
2019-02-24T13:22:58.675Z,12.90
2019-02-24T13:25:30.543Z,12.37
2019-02-24T13:28:01.816Z,12.63
2019-02-24T13:30:32.940Z,12.75
2019-02-24T13:33:04.888Z,15.50
2019-02-24T13:35:36.380Z,10.30
2019-02-24T13:38:07.227Z,17.75
2019-02-24T13:40:39.353Z,12.63
2019-02-24T13:43:11.681Z,12.82
2019-02-24T13:45:42.820Z,14.77
2019-02-24T13:48:14.490Z,10.35
2019-02-24T13:50:46.451Z,11.45
2019-02-24T13:53:17.397Z,16.57
2019-02-24T13:55:48.454Z,14.85
2019-02-24T13:58:21.658Z,13.72
2019-02-24T14:00:54.822Z,10.48
2019-02-24T14:03:30.235Z,10.93
2019-02-24T14:06:01.640Z,13.48
2019-02-24T14:08:33.581Z,10.28
2019-02-24T14:11:04.634Z,14.20
2019-02-24T14:13:36.531Z,13.43
2019-02-24T14:16:07.454Z,15.35
2019-02-24T14:18:39.067Z,14.13
2019-02-24T14:21:10.478Z,9.55
2019-02-24T14:23:41.672Z,11.05
2019-02-24T14:26:13.925Z,14.93
2019-02-24T14:28:45.282Z,11.80
2019-02-24T14:31:17.501Z,8.85
2019-02-24T14:33:48.556Z,9.20
2019-02-24T14:36:19.909Z,8.25
2019-02-24T14:38:51.807Z,12.70
2019-02-24T14:41:22.708Z,9.90
2019-02-24T14:43:54.566Z,8.70
2019-02-24T14:46:25.986Z,12.40
2019-02-24T14:48:57.222Z,8.48
2019-02-24T14:51:29.177Z,10.05
2019-02-24T14:54:00.718Z,12.05
2019-02-24T14:56:33.117Z,10.00
2019-02-24T14:59:05.593Z,15.48
2019-02-24T15:01:37.440Z,11.08
2019-02-24T15:04:10.116Z,12.18
2019-02-24T15:06:41.657Z,9.65
2019-02-24T15:09:13.147Z,14.58
2019-02-24T15:11:45.174Z,11.40
2019-02-24T15:14:16.503Z,11.35
2019-02-24T15:16:47.951Z,14.28
2019-02-24T15:19:19.632Z,9.43
2019-02-24T15:21:51.940Z,11.00
2019-02-24T15:24:23.890Z,14.58
2019-02-24T15:26:56.833Z,11.10
2019-02-24T15:29:28.730Z,12.90
2019-02-24T15:32:00.288Z,9.95
2019-02-24T15:34:31.618Z,14.47
2019-02-24T15:37:03.150Z,12.05
2019-02-24T15:39:35.795Z,11.12
2019-02-24T15:42:08.226Z,12.60
2019-02-24T15:44:38.968Z,12.20
2019-02-24T15:47:10.192Z,15.30
2019-02-24T15:49:41.870Z,25.25
2019-02-24T15:52:13.757Z,23.30
2019-02-24T15:54:45.508Z,25.45
2019-02-24T15:57:17.786Z,15.53
2019-02-24T15:59:48.985Z,16.52
2019-02-24T16:02:21.127Z,22.27
2019-02-24T16:04:52.906Z,31.15
2019-02-24T16:07:24.723Z,22.42
2019-02-24T16:09:55.074Z,23.45
2019-02-24T16:12:25.430Z,35.28
2019-02-24T16:14:55.779Z,69.72
2019-02-24T16:17:26.116Z,73.02
2019-02-24T16:19:56.792Z,84.17
2019-02-24T16:22:27.247Z,86.30
2019-02-24T16:24:57.510Z,86.80
2019-02-24T16:27:27.851Z,72.12
2019-02-24T16:29:58.141Z,72.60
2019-02-24T16:32:28.479Z,65.22
2019-02-24T16:34:58.945Z,61.40
2019-02-24T16:37:29.190Z,52.48
2019-02-24T16:39:59.473Z,74.20
2019-02-24T16:42:30.304Z,74.92
2019-02-24T16:45:01.344Z,63.63
2019-02-24T16:47:33.184Z,67.23
2019-02-24T16:50:06.833Z,64.70
2019-02-24T16:52:37.581Z,71.30
2019-02-24T16:55:10.533Z,95.67
2019-02-24T16:57:40.971Z,81.93
2019-02-24T17:00:14.816Z,64.53
2019-02-24T17:02:45.661Z,42.77
2019-02-24T17:05:16.026Z,50.67
2019-02-24T17:07:46.383Z,35.77
2019-02-24T17:10:19.466Z,24.27
2019-02-24T17:12:50.335Z,34.03
2019-02-24T17:15:21.700Z,33.83
2019-02-24T17:17:52.014Z,28.40
2019-02-24T17:20:24.521Z,27.53
2019-02-24T17:22:54.930Z,71.23
2019-02-24T17:25:25.204Z,61.27
2019-02-24T17:27:55.572Z,34.70
2019-02-24T17:30:26.929Z,32.90
2019-02-24T17:32:57.203Z,32.90
2019-02-24T17:35:27.511Z,24.73
2019-02-24T17:37:58.337Z,33.27
2019-02-24T17:40:28.687Z,28.97
2019-02-24T17:42:59.200Z,30.57
2019-02-24T17:45:29.539Z,29.43
2019-02-24T17:47:59.976Z,32.33
2019-02-24T17:50:30.529Z,29.97
2019-02-24T17:53:00.828Z,31.67
2019-02-24T17:55:31.176Z,51.43
2019-02-24T17:58:01.656Z,63.30
2019-02-24T18:00:33.672Z,41.70
2019-02-24T18:03:04.904Z,33.83
2019-02-24T18:05:36.712Z,32.67
2019-02-24T18:08:08.798Z,33.40
2019-02-24T18:10:39.916Z,32.17
2019-02-24T18:13:11.344Z,37.03
2019-02-24T18:15:42.358Z,38.83
2019-02-24T18:18:12.643Z,38.07
2019-02-24T18:20:43.576Z,40.07
2019-02-24T18:23:14.322Z,47.60
2019-02-24T18:25:44.675Z,75.50
2019-02-24T18:28:15.060Z,63.70
2019-02-24T18:30:45.470Z,64.93
2019-02-24T18:33:17.004Z,61.40
2019-02-24T18:35:47.669Z,48.60
2019-02-24T18:38:17.972Z,61.40
2019-02-24T18:40:48.269Z,40.20
2019-02-24T18:43:18.769Z,53.80
2019-02-24T18:45:49.071Z,79.77
2019-02-24T18:48:19.775Z,44.37
2019-02-24T18:50:52.287Z,155.13
2019-02-24T18:53:25.510Z,168.57
2019-02-24T18:55:57.965Z,121.83
2019-02-24T18:58:30.351Z,99.80
2019-02-24T19:01:05.175Z,60.60
2019-02-24T19:03:37.456Z,85.23
2019-02-24T19:06:08.602Z,82.77
2019-02-24T19:08:39.162Z,87.33
2019-02-24T19:11:10.136Z,64.90
2019-02-24T19:13:42.382Z,52.33
2019-02-24T19:16:13.224Z,60.07
2019-02-24T19:18:46.482Z,63.93
2019-02-24T19:21:18.294Z,64.67
2019-02-24T19:23:50.038Z,58.47
2019-02-24T19:26:20.345Z,54.57
2019-02-24T19:28:51.097Z,52.07
2019-02-24T19:31:22.443Z,48.57
2019-02-24T19:33:54.116Z,59.60
2019-02-24T19:36:25.543Z,64.63
2019-02-24T19:38:56.165Z,75.23
2019-02-24T19:41:27.103Z,83.83
2019-02-24T19:43:59.049Z,133.63
2019-02-24T19:46:30.984Z,89.37
2019-02-24T19:49:03.063Z,59.43
2019-02-24T19:51:34.435Z,61.67
2019-02-24T19:54:06.863Z,365.93
2019-02-24T19:56:39.138Z,293.20
2019-02-24T19:59:10.824Z,246.03
2019-02-24T20:01:42.123Z,77.33
2019-02-24T20:04:16.281Z,71.23
2019-02-24T20:06:46.933Z,54.30
2019-02-24T20:09:18.675Z,62.03
2019-02-24T20:11:49.523Z,111.93
2019-02-24T20:14:20.963Z,98.10
2019-02-24T20:16:52.881Z,124.03
2019-02-24T20:19:25.187Z,61.67
2019-02-24T20:22:01.984Z,70.27
2019-02-24T20:24:33.772Z,58.67
2019-02-24T20:27:06.736Z,56.10
2019-02-24T20:29:38.102Z,48.63
2019-02-24T20:32:09.220Z,51.63
2019-02-24T20:34:40.447Z,46.43
2019-02-24T20:37:11.523Z,50.83
2019-02-24T20:39:43.222Z,46.03
2019-02-24T20:42:14.804Z,39.77
2019-02-24T20:44:46.356Z,38.17
2019-02-24T20:47:18.484Z,40.20
2019-02-24T20:49:51.224Z,36.63
2019-02-24T20:52:22.941Z,42.10
2019-02-24T20:54:54.164Z,57.13
2019-02-24T20:57:25.524Z,44.07
2019-02-24T20:59:56.042Z,45.97
2019-02-24T21:02:26.610Z,37.67
2019-02-24T21:04:58.638Z,43.90
2019-02-24T21:07:30.580Z,44.30
2019-02-24T21:10:02.049Z,38.30
2019-02-24T21:12:32.892Z,44.07
2019-02-24T21:15:05.141Z,41.40
2019-02-24T21:17:36.576Z,41.60
2019-02-24T21:20:10.722Z,41.97
2019-02-24T21:22:42.183Z,36.40
2019-02-24T21:25:13.698Z,43.67
2019-02-24T21:27:44.271Z,39.63
2019-02-24T21:30:17.069Z,41.70
2019-02-24T21:32:48.902Z,40.30
2019-02-24T21:35:21.122Z,43.83
2019-02-24T21:37:53.282Z,45.40
2019-02-24T21:40:27.205Z,51.87
2019-02-24T21:43:05.225Z,47.43
2019-02-24T21:45:37.002Z,50.73
2019-02-24T21:48:08.275Z,65.27
2019-02-24T21:50:39.725Z,95.93
2019-02-24T21:53:10.933Z,89.10
2019-02-24T21:55:43.657Z,91.17
2019-02-24T21:58:14.828Z,66.90
2019-02-24T22:00:47.085Z,76.53
2019-02-24T22:03:23.335Z,65.70
2019-02-24T22:05:56.712Z,63.77
2019-02-24T22:08:27.013Z,61.57
2019-02-24T22:10:58.288Z,60.37
2019-02-24T22:13:29.906Z,63.50
2019-02-24T22:16:01.644Z,60.90
2019-02-24T22:18:35.502Z,61.20
2019-02-24T22:21:07.701Z,64.57
2019-02-24T22:23:38.627Z,75.70
2019-02-24T22:26:09.501Z,90.03
2019-02-24T22:28:40.704Z,65.53
2019-02-24T22:31:12.068Z,51.90
2019-02-24T22:33:43.388Z,49.60
2019-02-24T22:36:13.850Z,65.30
2019-02-24T22:38:44.642Z,51.47
2019-02-24T22:41:15.683Z,103.93
2019-02-24T22:43:47.676Z,71.13
2019-02-24T22:46:19.346Z,62.63
2019-02-24T22:48:50.855Z,52.97
2019-02-24T22:51:23.086Z,73.77
2019-02-24T22:53:54.486Z,65.40
2019-02-24T22:56:25.089Z,74.73
2019-02-24T22:58:57.303Z,63.40
2019-02-24T23:01:28.754Z,56.47
2019-02-24T23:04:04.964Z,58.27
2019-02-24T23:06:36.921Z,57.03
2019-02-24T23:09:09.511Z,50.80
2019-02-24T23:11:41.755Z,52.67
2019-02-24T23:14:12.568Z,49.67
2019-02-24T23:16:43.374Z,54.97
2019-02-24T23:19:15.574Z,49.60
2019-02-24T23:21:46.368Z,60.20
2019-02-24T23:24:17.030Z,55.13
2019-02-24T23:26:48.303Z,71.30
2019-02-24T23:29:20.401Z,71.57
2019-02-24T23:31:51.611Z,75.93
2019-02-24T23:34:22.701Z,95.10
2019-02-24T23:36:53.629Z,90.60
2019-02-24T23:39:24.128Z,95.20
2019-02-24T23:41:55.586Z,75.47
2019-02-24T23:44:26.401Z,69.17
2019-02-24T23:46:57.866Z,81.33
2019-02-24T23:49:29.060Z,45.00
2019-02-24T23:51:59.873Z,72.73
2019-02-24T23:54:30.872Z,56.33
2019-02-24T23:57:01.663Z,60.20
2019-02-24T23:59:32.612Z,76.57
